Time;durP1;ratioP1;P1;durP2;ratioP2;P2;SDS_P1;SDS_P2;PMS_P1;PMS_P2;Temp;Humidity;BMP_temperature;BMP_pressure;BME280_temperature;BME280_humidity;BME280_pressure;Samples;Min_cycle;Max_cycle;Signal;HPM_P1;HPM_P2
2021/09/21 00:00:01;;;;;;;6.28;4.47;;;21.60;71.30;;;;;;5194242;28;20047;-62
2021/09/21 00:02:38;;;;;;;10.25;5.25;;;21.60;71.30;;;;;;5189984;28;20064;-60
2021/09/21 00:05:11;;;;;;;9.98;5.00;;;21.50;71.30;;;;;;5196914;28;20423;-58
2021/09/21 00:07:46;;;;;;;9.23;4.80;;;21.60;71.30;;;;;;5196515;28;20437;-62
2021/09/21 00:10:18;;;;;;;7.97;4.95;;;21.60;71.30;;;;;;5197726;28;20048;-61
2021/09/21 00:12:51;;;;;;;10.17;4.63;;;21.60;71.30;;;;;;5195692;28;20497;-59
2021/09/21 00:15:23;;;;;;;9.15;4.65;;;21.60;71.30;;;;;;5209844;28;20049;-58
2021/09/21 00:17:56;;;;;;;7.13;4.55;;;21.60;71.30;;;;;;5203498;28;20040;-60
2021/09/21 00:20:28;;;;;;;6.65;4.72;;;21.60;71.20;;;;;;5194669;28;20401;-59
2021/09/21 00:23:01;;;;;;;6.60;4.53;;;21.60;71.20;;;;;;5187462;28;20052;-62
2021/09/21 00:25:33;;;;;;;6.40;4.60;;;21.60;71.30;;;;;;5190996;28;20060;-61
2021/09/21 00:28:06;;;;;;;7.88;4.75;;;21.60;71.20;;;;;;5194656;28;20045;-61
2021/09/21 00:30:47;;;;;;;9.07;4.68;;;21.60;71.20;;;;;;5188766;28;20045;-60
2021/09/21 00:33:23;;;;;;;6.32;4.70;;;21.60;71.20;;;;;;5192481;28;20489;-61
2021/09/21 00:35:55;;;;;;;8.25;4.82;;;21.60;71.20;;;;;;5197874;28;20045;-61
2021/09/21 00:38:28;;;;;;;8.93;4.72;;;21.60;71.20;;;;;;5193534;28;20045;-61
2021/09/21 00:41:00;;;;;;;6.38;4.60;;;21.60;71.20;;;;;;5193599;28;20045;-62
2021/09/21 00:43:32;;;;;;;9.15;5.00;;;21.60;71.20;;;;;;5193450;28;20055;-63
2021/09/21 00:46:06;;;;;;;5.88;4.47;;;21.60;71.20;;;;;;5165782;28;20428;-62
2021/09/21 00:48:38;;;;;;;11.95;4.97;;;21.60;71.20;;;;;;5185013;28;20452;-60
2021/09/21 00:51:10;;;;;;;9.90;5.05;;;21.60;71.30;;;;;;5189178;28;20147;-63
2021/09/21 00:53:43;;;;;;;9.82;4.63;;;21.60;71.30;;;;;;5187629;28;20041;-59
2021/09/21 00:56:15;;;;;;;6.85;4.10;;;21.60;71.30;;;;;;5183603;28;20048;-63
2021/09/21 00:58:48;;;;;;;6.80;4.78;;;21.60;71.30;;;;;;5179746;28;20045;-60
2021/09/21 01:01:21;;;;;;;8.18;4.13;;;21.60;71.40;;;;;;5190708;28;20040;-62
2021/09/21 01:03:54;;;;;;;9.57;4.72;;;21.60;71.40;;;;;;5185509;28;20044;-62
2021/09/21 01:06:27;;;;;;;6.47;4.37;;;21.60;71.30;;;;;;5197904;28;20044;-61
2021/09/21 01:08:59;;;;;;;8.68;4.93;;;21.60;71.40;;;;;;5193156;28;20458;-60
2021/09/21 01:11:32;;;;;;;7.35;4.43;;;21.60;71.40;;;;;;5183953;28;20052;-63
2021/09/21 01:14:04;;;;;;;8.05;4.32;;;21.60;71.40;;;;;;5197468;28;20044;-58
2021/09/21 01:16:37;;;;;;;9.30;4.38;;;21.60;71.40;;;;;;5180798;28;20898;-62
2021/09/21 01:19:11;;;;;;;11.82;4.68;;;21.60;71.40;;;;;;5184028;28;20056;-59
2021/09/21 01:21:46;;;;;;;7.18;4.63;;;21.70;71.40;;;;;;5192687;28;20056;-57
2021/09/21 01:24:20;;;;;;;5.80;4.10;;;21.60;71.40;;;;;;5181123;28;20042;-64
2021/09/21 01:26:53;;;;;;;6.55;4.20;;;21.70;71.40;;;;;;5187325;28;20045;-58
2021/09/21 01:29:26;;;;;;;8.00;4.32;;;21.70;71.40;;;;;;5181608;28;20044;-60
2021/09/21 01:31:58;;;;;;;9.55;4.63;;;21.70;71.50;;;;;;5189048;28;20299;-58
2021/09/21 01:34:34;;;;;;;8.13;4.07;;;21.70;71.50;;;;;;5188579;28;20063;-60
2021/09/21 01:37:11;;;;;;;17.23;5.25;;;21.60;71.50;;;;;;5192411;28;20056;-61
2021/09/21 01:39:44;;;;;;;10.60;4.35;;;21.70;71.50;;;;;;5187054;28;20489;-59
2021/09/21 01:42:17;;;;;;;6.28;4.15;;;21.60;71.50;;;;;;5193035;28;20132;-61
2021/09/21 01:44:49;;;;;;;7.00;4.65;;;21.60;71.50;;;;;;5187404;28;20055;-61
2021/09/21 01:47:22;;;;;;;7.78;4.72;;;21.70;71.50;;;;;;5181946;28;20526;-63
2021/09/21 01:50:17;;;;;;;6.30;4.43;;;21.70;71.50;;;;;;5187588;28;20068;-57
2021/09/21 01:52:55;;;;;;;9.38;3.88;;;21.70;71.50;;;;;;5200518;28;20477;-61
2021/09/21 01:58:46;;;;;;;7.07;4.38;;;21.70;71.50;;;;;;5205311;28;20061;-63
2021/09/21 02:01:21;;;;;;;6.53;3.88;;;21.60;71.40;;;;;;5188794;28;20179;-63
2021/09/21 02:03:56;;;;;;;9.30;4.10;;;21.70;71.50;;;;;;5191844;28;20088;-61
2021/09/21 02:06:37;;;;;;;11.93;3.80;;;21.70;71.50;;;;;;5179910;28;20048;-62
2021/09/21 02:09:13;;;;;;;5.72;4.30;;;21.70;71.50;;;;;;5195290;28;20426;-60
2021/09/21 02:11:46;;;;;;;5.00;4.15;;;21.60;71.40;;;;;;5191024;28;20049;-60
2021/09/21 02:14:19;;;;;;;6.75;4.65;;;21.70;71.50;;;;;;5192248;28;20060;-60
2021/09/21 02:16:54;;;;;;;6.13;4.35;;;21.70;71.40;;;;;;5187791;28;20064;-64
2021/09/21 02:19:27;;;;;;;5.15;4.30;;;21.70;71.40;;;;;;5186806;28;20045;-61
2021/09/21 02:21:59;;;;;;;9.23;4.25;;;21.70;71.50;;;;;;5188325;28;20048;-63
2021/09/21 02:24:32;;;;;;;5.25;3.78;;;21.70;71.50;;;;;;5193495;28;20488;-63
2021/09/21 02:27:04;;;;;;;6.63;3.95;;;21.70;71.50;;;;;;5189683;28;20067;-59
2021/09/21 02:29:37;;;;;;;8.35;4.55;;;21.70;71.50;;;;;;5191127;28;20060;-61
2021/09/21 02:32:09;;;;;;;5.50;3.97;;;21.60;71.40;;;;;;5191435;28;20052;-63
2021/09/21 02:34:45;;;;;;;6.32;4.00;;;21.70;71.50;;;;;;5199774;28;20061;-61
2021/09/21 02:37:17;;;;;;;8.60;4.57;;;21.70;71.50;;;;;;5190046;28;20048;-60
2021/09/21 02:39:50;;;;;;;13.00;4.63;;;21.70;71.50;;;;;;5213147;28;20049;-60
2021/09/21 02:42:22;;;;;;;10.85;4.15;;;21.70;71.60;;;;;;5214725;28;20053;-59
2021/09/21 02:44:55;;;;;;;11.02;4.25;;;21.70;71.60;;;;;;5203167;28;20047;-57
2021/09/21 02:47:28;;;;;;;6.67;4.00;;;21.70;71.70;;;;;;5203205;28;20056;-62
2021/09/21 02:50:00;;;;;;;6.55;4.15;;;21.70;71.70;;;;;;5191897;28;20310;-60
2021/09/21 02:52:33;;;;;;;12.63;4.77;;;21.70;71.70;;;;;;5194331;28;20075;-61
2021/09/21 02:55:07;;;;;;;5.85;3.90;;;21.70;71.70;;;;;;5195510;28;20058;-58
2021/09/21 02:57:39;;;;;;;;;;;21.70;71.70;;;;;;5186850;28;20056;-63
2021/09/21 03:00:14;;;;;;;10.10;4.63;;;21.60;71.60;;;;;;5180526;28;19932;-58
2021/09/21 03:02:47;;;;;;;12.63;4.10;;;21.70;71.70;;;;;;5194704;28;20870;-62
2021/09/21 03:05:24;;;;;;;13.20;4.05;;;21.70;71.70;;;;;;5189093;28;20049;-60
2021/09/21 03:08:11;;;;;;;7.88;4.03;;;21.70;71.70;;;;;;5190845;28;20045;-59
2021/09/21 03:19:01;;;;;;;7.15;3.78;;;21.60;71.70;;;;;;5179277;28;20045;-58
2021/09/21 03:21:33;;;;;;;8.63;3.80;;;21.70;71.70;;;;;;5182554;28;20053;-60
2021/09/21 03:24:06;;;;;;;5.85;3.97;;;21.70;71.70;;;;;;5186095;28;20501;-62
2021/09/21 03:26:38;;;;;;;9.68;3.83;;;21.70;71.70;;;;;;5188208;28;20060;-57
2021/09/21 03:29:11;;;;;;;8.43;3.63;;;21.70;71.70;;;;;;5194320;28;20511;-59
2021/09/21 03:31:43;;;;;;;5.65;3.88;;;21.70;71.70;;;;;;5193232;28;20063;-59
2021/09/21 03:34:15;;;;;;;7.10;4.18;;;21.70;71.70;;;;;;5194795;28;20056;-62
2021/09/21 03:36:48;;;;;;;7.63;4.15;;;21.70;71.80;;;;;;5194741;28;20049;-63
2021/09/21 03:39:20;;;;;;;5.50;3.42;;;21.70;71.80;;;;;;5187443;28;20244;-58
2021/09/21 03:41:53;;;;;;;8.98;4.10;;;21.70;71.80;;;;;;5194645;28;20219;-61
2021/09/21 03:44:26;;;;;;;8.25;4.20;;;21.70;71.80;;;;;;5198434;28;20642;-62
2021/09/21 03:46:59;;;;;;;9.45;4.70;;;21.70;71.80;;;;;;5194898;28;20406;-64
2021/09/21 03:49:31;;;;;;;5.22;3.83;;;21.70;71.80;;;;;;5188383;28;20045;-62
2021/09/21 03:52:05;;;;;;;4.47;3.67;;;21.70;71.80;;;;;;5185369;28;20055;-63
2021/09/21 03:54:38;;;;;;;8.33;4.00;;;21.70;71.80;;;;;;5196035;28;20053;-61
2021/09/21 03:57:10;;;;;;;5.73;3.70;;;21.70;71.90;;;;;;5193856;28;20063;-62
2021/09/21 03:59:43;;;;;;;4.43;3.25;;;21.70;71.80;;;;;;5190498;28;20056;-59
2021/09/21 04:02:16;;;;;;;7.40;4.15;;;21.60;71.80;;;;;;5192894;28;20041;-58
2021/09/21 04:04:49;;;;;;;4.83;3.63;;;21.60;71.80;;;;;;5187729;28;20048;-59
2021/09/21 04:07:21;;;;;;;6.65;3.70;;;21.70;71.90;;;;;;5191571;28;20148;-59
2021/09/21 04:09:54;;;;;;;9.05;3.85;;;21.60;71.80;;;;;;5196053;28;20064;-59
2021/09/21 04:12:26;;;;;;;5.27;4.00;;;21.70;71.90;;;;;;5196099;28;20511;-59
2021/09/21 04:14:59;;;;;;;7.32;3.88;;;21.70;72.00;;;;;;5193973;28;20052;-59
2021/09/21 04:17:31;;;;;;;6.22;3.83;;;21.60;72.00;;;;;;5180252;28;20061;-64
2021/09/21 04:20:04;;;;;;;7.05;3.33;;;21.70;72.00;;;;;;5179528;28;20051;-59
2021/09/21 04:22:39;;;;;;;8.65;3.92;;;21.70;72.00;;;;;;5167580;28;20048;-60
2021/09/21 04:25:12;;;;;;;6.30;3.45;;;21.60;72.00;;;;;;5183576;28;21191;-61
2021/09/21 04:27:46;;;;;;;5.70;3.45;;;21.70;72.00;;;;;;5192155;28;20063;-61
2021/09/21 04:30:22;;;;;;;9.82;4.40;;;21.70;72.10;;;;;;5187330;28;20061;-63
2021/09/21 04:32:55;;;;;;;11.00;4.07;;;21.70;72.10;;;;;;5196896;28;20045;-60
2021/09/21 04:35:27;;;;;;;4.70;3.38;;;21.70;72.10;;;;;;5199566;28;20045;-61
2021/09/21 04:37:59;;;;;;;7.13;3.90;;;21.70;72.00;;;;;;5202064;28;20781;-58
2021/09/21 04:40:32;;;;;;;11.48;4.60;;;21.70;72.00;;;;;;5199387;28;20049;-61
2021/09/21 04:43:05;;;;;;;7.30;4.20;;;21.70;72.10;;;;;;5201010;28;20057;-62
2021/09/21 04:45:38;;;;;;;12.10;4.57;;;21.70;72.10;;;;;;5191126;28;20513;-59
2021/09/21 04:48:11;;;;;;;10.17;4.20;;;21.70;72.70;;;;;;5201357;28;20045;-62
2021/09/21 04:50:43;;;;;;;7.03;4.00;;;21.70;72.10;;;;;;5204733;28;20594;-59
2021/09/21 04:53:16;;;;;;;7.82;3.83;;;21.70;72.10;;;;;;5206334;28;20045;-60
2021/09/21 04:55:49;;;;;;;10.32;3.92;;;21.70;72.10;;;;;;5193631;28;20057;-60
2021/09/21 04:58:21;;;;;;;7.43;3.80;;;21.70;72.00;;;;;;5180374;28;20053;-59
2021/09/21 05:00:54;;;;;;;8.85;3.78;;;21.70;72.00;;;;;;5188707;28;20969;-60
2021/09/21 05:03:27;;;;;;;8.13;3.38;;;21.70;72.00;;;;;;5189640;28;20052;-58
2021/09/21 05:05:59;;;;;;;4.78;3.47;;;21.70;72.00;;;;;;5190780;28;21099;-58
2021/09/21 05:08:32;;;;;;;8.77;3.70;;;21.80;72.00;;;;;;5195637;28;20060;-63
2021/09/21 05:11:04;;;;;;;6.90;3.42;;;21.80;72.00;;;;;;5201038;28;20053;-61
2021/09/21 05:13:37;;;;;;;9.43;3.55;;;21.80;72.00;;;;;;5196638;28;20057;-60
2021/09/21 05:16:09;;;;;;;10.18;3.35;;;21.80;72.00;;;;;;5202074;28;20063;-61
2021/09/21 05:18:42;;;;;;;8.82;4.10;;;21.80;72.00;;;;;;5197452;28;20057;-60
2021/09/21 05:21:14;;;;;;;7.55;4.22;;;21.80;72.00;;;;;;5194902;28;20045;-59
2021/09/21 05:23:47;;;;;;;9.10;3.53;;;21.80;72.00;;;;;;5205715;28;20529;-59
2021/09/21 05:26:19;;;;;;;11.05;4.47;;;21.80;72.00;;;;;;5206080;28;20038;-56
2021/09/21 05:28:52;;;;;;;4.75;3.30;;;21.80;72.00;;;;;;5205807;28;20437;-59
2021/09/21 05:31:24;;;;;;;11.98;3.47;;;21.80;72.00;;;;;;5203128;28;20437;-58
2021/09/21 05:33:57;;;;;;;6.73;3.70;;;21.80;72.00;;;;;;5201767;28;20056;-60
2021/09/21 05:36:30;;;;;;;6.15;3.40;;;21.80;72.00;;;;;;5205391;28;20059;-58
2021/09/21 05:39:03;;;;;;;8.60;3.60;;;21.80;71.90;;;;;;5202320;28;20511;-58
2021/09/21 05:41:35;;;;;;;6.72;3.88;;;21.90;72.10;;;;;;5200796;28;20045;-60
2021/09/21 05:44:08;;;;;;;8.73;3.33;;;21.90;72.10;;;;;;5202940;28;20052;-58
2021/09/21 05:46:45;;;;;;;10.07;3.53;;;21.80;72.00;;;;;;5207481;28;20041;-58
2021/09/21 05:49:18;;;;;;;5.35;3.50;;;21.90;72.10;;;;;;5210897;28;20437;-57
2021/09/21 05:51:51;;;;;;;5.78;3.38;;;21.80;72.00;;;;;;5206657;28;20087;-55
2021/09/21 05:54:27;;;;;;;6.32;3.28;;;21.90;72.10;;;;;;5206513;28;20045;-60
2021/09/21 05:56:59;;;;;;;9.55;3.55;;;21.90;72.10;;;;;;5205625;28;20569;-58
2021/09/21 05:59:32;;;;;;;12.90;3.75;;;21.90;72.10;;;;;;5193755;28;20041;-60
2021/09/21 06:02:04;;;;;;;15.25;4.10;;;21.90;72.10;;;;;;5201039;28;20064;-57
2021/09/21 06:04:37;;;;;;;21.70;5.75;;;21.90;72.30;;;;;;5198070;28;20390;-57
2021/09/21 06:07:09;;;;;;;18.33;4.05;;;21.90;72.10;;;;;;5203719;28;20045;-58
2021/09/21 06:09:42;;;;;;;33.05;4.85;;;21.90;72.00;;;;;;5200954;28;20068;-58
2021/09/21 06:12:15;;;;;;;17.05;4.63;;;21.90;72.00;;;;;;5199252;28;20049;-59
2021/09/21 06:14:47;;;;;;;14.87;3.60;;;21.90;71.90;;;;;;5198665;28;20045;-55
2021/09/21 06:17:20;;;;;;;15.60;4.30;;;22.00;71.90;;;;;;5195503;28;20056;-58
2021/09/21 06:19:52;;;;;;;8.38;3.88;;;22.00;71.80;;;;;;5201135;28;20405;-57
2021/09/21 06:22:25;;;;;;;13.02;4.10;;;21.90;71.70;;;;;;5197976;28;20041;-61
2021/09/21 06:24:57;;;;;;;12.63;3.80;;;21.90;71.60;;;;;;5196263;28;20604;-61
2021/09/21 06:27:30;;;;;;;12.50;3.50;;;21.90;71.50;;;;;;5209320;28;20500;-57
2021/09/21 06:30:08;;;;;;;14.48;3.83;;;21.90;71.50;;;;;;5204344;28;20064;-57
2021/09/21 06:32:42;;;;;;;11.10;3.30;;;21.90;71.50;;;;;;5199417;28;20053;-61
2021/09/21 06:35:14;;;;;;;7.70;3.90;;;21.90;72.10;;;;;;5204415;28;20053;-61
2021/09/21 06:37:47;;;;;;;9.45;3.53;;;21.90;71.40;;;;;;5208051;28;20553;-61
2021/09/21 06:40:20;;;;;;;9.23;3.40;;;21.90;71.30;;;;;;5204783;28;20044;-60
2021/09/21 06:42:52;;;;;;;6.93;3.80;;;22.00;71.50;;;;;;5204960;28;20299;-61
2021/09/21 06:45:26;;;;;;;9.98;3.30;;;21.90;71.30;;;;;;5206119;28;20053;-59
2021/09/21 06:47:59;;;;;;;;;;;22.00;71.30;;;;;;5204114;28;20037;-59
2021/09/21 06:50:32;;;;;;;8.02;3.15;;;22.00;71.20;;;;;;5193451;28;20232;-60
2021/09/21 06:53:05;;;;;;;9.70;3.85;;;22.00;71.20;;;;;;5201898;28;20486;-59
2021/09/21 06:55:37;;;;;;;8.05;3.67;;;22.00;71.20;;;;;;5204846;28;20404;-57
2021/09/21 06:58:10;;;;;;;10.98;3.75;;;22.00;71.10;;;;;;5180097;28;20501;-58
2021/09/21 07:00:45;;;;;;;7.43;3.47;;;21.90;71.00;;;;;;5206180;28;20421;-57
2021/09/21 07:03:18;;;;;;;11.05;3.50;;;21.90;71.00;;;;;;5203576;28;20048;-59
2021/09/21 07:05:53;;;;;;;10.27;3.73;;;21.90;70.90;;;;;;5202627;28;20059;-58
2021/09/21 07:08:26;;;;;;;10.13;4.03;;;22.00;71.00;;;;;;5203327;28;20303;-59
2021/09/21 07:10:58;;;;;;;7.23;3.80;;;21.90;70.90;;;;;;5207808;28;20049;-58
2021/09/21 07:13:31;;;;;;;7.20;3.10;;;22.00;70.90;;;;;;5204385;28;20619;-58
2021/09/21 07:16:07;;;;;;;6.53;3.50;;;22.00;70.90;;;;;;5205564;28;20424;-58
2021/09/21 07:18:40;;;;;;;10.80;3.63;;;22.00;70.80;;;;;;5199808;28;20045;-58
2021/09/21 07:21:13;;;;;;;5.05;3.28;;;22.00;70.80;;;;;;5205529;28;20041;-61
2021/09/21 07:23:45;;;;;;;6.25;3.13;;;22.00;70.80;;;;;;5205242;28;20063;-58
2021/09/21 07:26:18;;;;;;;8.02;3.13;;;22.00;70.80;;;;;;5205772;28;20045;-58
2021/09/21 07:28:51;;;;;;;7.35;3.45;;;22.00;70.80;;;;;;5202079;28;20584;-60
2021/09/21 07:31:23;;;;;;;9.77;3.30;;;22.00;70.80;;;;;;5209302;28;20045;-58
2021/09/21 07:33:56;;;;;;;9.20;3.72;;;22.00;70.80;;;;;;5207916;28;20624;-59
2021/09/21 07:36:28;;;;;;;7.43;3.25;;;22.00;70.70;;;;;;5211384;28;20045;-57
2021/09/21 07:39:02;;;;;;;9.52;3.40;;;22.00;70.70;;;;;;5210732;28;20069;-60
2021/09/21 07:41:34;;;;;;;5.72;3.30;;;22.00;70.70;;;;;;5208928;28;20416;-60
2021/09/21 07:44:06;;;;;;;5.75;3.40;;;22.00;70.70;;;;;;5205451;28;20043;-58
2021/09/21 07:46:39;;;;;;;4.78;3.50;;;22.00;70.60;;;;;;5204058;28;20071;-59
2021/09/21 07:49:12;;;;;;;7.87;3.10;;;22.00;70.60;;;;;;5198653;28;20049;-55
2021/09/21 07:51:45;;;;;;;6.70;2.92;;;22.00;70.60;;;;;;5196923;28;20052;-57
2021/09/21 07:54:18;;;;;;;6.53;3.35;;;22.00;70.60;;;;;;5184605;28;20052;-58
2021/09/21 07:56:51;;;;;;;;;;;22.00;70.60;;;;;;5200288;28;20061;-59
2021/09/21 07:59:23;;;;;;;10.10;3.50;;;22.00;71.20;;;;;;5194247;28;20468;-59
2021/09/21 08:01:56;;;;;;;4.75;3.10;;;22.00;70.60;;;;;;5191184;28;20045;-59
2021/09/21 08:04:29;;;;;;;7.63;3.20;;;22.00;70.60;;;;;;5191349;28;20041;-59
2021/09/21 08:07:02;;;;;;;6.13;3.38;;;22.00;70.60;;;;;;5204302;28;20045;-58
2021/09/21 08:09:35;;;;;;;7.22;3.67;;;22.00;70.60;;;;;;5203822;28;20497;-58
2021/09/21 08:12:07;;;;;;;5.60;3.03;;;22.00;70.60;;;;;;5198493;28;20056;-59
2021/09/21 08:14:41;;;;;;;4.43;3.22;;;22.00;70.60;;;;;;5196237;28;20048;-56
2021/09/21 08:17:14;;;;;;;5.28;2.83;;;22.00;70.60;;;;;;5195180;28;20067;-58
2021/09/21 08:19:46;;;;;;;7.82;3.10;;;22.00;70.50;;;;;;5195145;28;20057;-61
2021/09/21 08:22:20;;;;;;;6.20;3.17;;;22.00;70.50;;;;;;5195887;28;20598;-57
2021/09/21 08:24:55;;;;;;;5.20;2.97;;;22.00;70.50;;;;;;5193796;28;20408;-59
2021/09/21 08:27:28;;;;;;;5.18;3.22;;;22.00;70.50;;;;;;5196297;28;20041;-60
2021/09/21 08:30:00;;;;;;;3.20;2.72;;;22.00;70.50;;;;;;5196247;28;20041;-61
2021/09/21 08:32:33;;;;;;;6.80;2.97;;;22.00;70.50;;;;;;5191445;28;20054;-60
2021/09/21 08:35:07;;;;;;;3.67;2.80;;;22.10;70.50;;;;;;5193156;28;20044;-60
2021/09/21 08:37:41;;;;;;;4.57;3.00;;;22.00;70.40;;;;;;5193129;28;20057;-61
2021/09/21 08:40:15;;;;;;;4.32;2.83;;;22.00;70.40;;;;;;5194379;28;21060;-60
2021/09/21 08:42:47;;;;;;;3.47;2.83;;;22.00;70.40;;;;;;5192175;28;20053;-58
2021/09/21 08:45:20;;;;;;;3.97;2.95;;;22.00;70.40;;;;;;5194371;28;20300;-58
2021/09/21 08:47:53;;;;;;;3.40;2.90;;;22.00;70.40;;;;;;5189026;28;20041;-58
2021/09/21 08:50:25;;;;;;;4.88;3.17;;;22.10;70.40;;;;;;5197192;28;20049;-58
2021/09/21 08:52:58;;;;;;;5.40;3.13;;;22.10;70.40;;;;;;5199401;28;20057;-59
2021/09/21 08:55:30;;;;;;;8.35;3.70;;;22.00;70.40;;;;;;5202650;28;20053;-57
2021/09/21 08:58:03;;;;;;;4.90;3.55;;;22.00;70.30;;;;;;5208148;28;20048;-58
2021/09/21 09:00:36;;;;;;;3.40;2.80;;;22.10;70.40;;;;;;5198925;28;20081;-60
2021/09/21 09:03:14;;;;;;;5.43;3.13;;;22.10;70.40;;;;;;5206039;28;20045;-58
2021/09/21 09:05:53;;;;;;;6.32;3.28;;;22.10;70.70;;;;;;5200343;28;20314;-58
2021/09/21 09:08:32;;;;;;;4.20;2.83;;;22.00;70.30;;;;;;5204373;28;20804;-58
2021/09/21 09:11:22;;;;;;;3.60;2.53;;;22.10;70.40;;;;;;5189079;28;20049;-61
2021/09/21 09:13:57;;;;;;;6.60;3.67;;;22.10;70.40;;;;;;5196597;28;21712;-59
2021/09/21 09:16:35;;;;;;;5.63;2.80;;;22.10;70.30;;;;;;5200554;28;20056;-57
2021/09/21 09:19:10;;;;;;;4.45;3.28;;;22.10;70.40;;;;;;5210198;28;20049;-59
2021/09/21 09:21:45;;;;;;;6.13;3.00;;;22.10;70.30;;;;;;5208499;28;20052;-58
2021/09/21 09:24:20;;;;;;;4.70;3.08;;;22.10;70.30;;;;;;5207492;28;20448;-58
2021/09/21 09:26:52;;;;;;;5.00;3.25;;;22.10;70.30;;;;;;5211980;28;20281;-58
2021/09/21 09:29:25;;;;;;;3.97;2.83;;;22.10;70.30;;;;;;5211707;28;20043;-55
2021/09/21 09:32:00;;;;;;;4.57;2.78;;;22.10;70.30;;;;;;5211235;28;20136;-58
2021/09/21 09:34:33;;;;;;;4.20;3.17;;;22.10;70.20;;;;;;5207001;28;20053;-58
2021/09/21 09:37:06;;;;;;;6.60;3.25;;;22.10;70.20;;;;;;5213349;28;20045;-59
2021/09/21 09:39:40;;;;;;;4.85;3.28;;;22.10;70.20;;;;;;5209359;28;20509;-60
2021/09/21 09:42:13;;;;;;;4.15;3.30;;;22.10;70.20;;;;;;5212092;28;20041;-56
2021/09/21 09:44:46;;;;;;;4.38;3.40;;;22.10;70.10;;;;;;5215867;28;20057;-60
2021/09/21 09:47:19;;;;;;;5.85;3.22;;;22.10;70.10;;;;;;5213450;28;20045;-59
2021/09/21 09:49:51;;;;;;;4.72;3.28;;;22.10;70.10;;;;;;5212190;28;20425;-57
2021/09/21 09:52:24;;;;;;;5.35;3.45;;;22.10;70.10;;;;;;5210508;28;20040;-56
2021/09/21 09:54:58;;;;;;;3.83;2.83;;;22.10;70.00;;;;;;5206720;28;20049;-58
2021/09/21 09:57:31;;;;;;;4.55;2.95;;;22.10;70.00;;;;;;5214840;28;20046;-57
2021/09/21 10:00:04;;;;;;;5.18;2.97;;;22.10;70.10;;;;;;5212641;28;20049;-58
2021/09/21 10:02:43;;;;;;;4.57;2.90;;;22.10;70.00;;;;;;5211681;28;20063;-59
2021/09/21 10:05:16;;;;;;;6.30;3.30;;;22.10;70.00;;;;;;5210568;28;20045;-57
2021/09/21 10:07:48;;;;;;;6.00;3.67;;;22.10;70.00;;;;;;5211486;28;20056;-57
2021/09/21 10:10:21;;;;;;;7.22;3.78;;;22.10;70.00;;;;;;5213388;28;20067;-56
2021/09/21 10:12:55;;;;;;;5.43;3.28;;;22.10;70.00;;;;;;5211982;28;20626;-56
2021/09/21 10:15:28;;;;;;;5.22;2.97;;;22.10;70.00;;;;;;5200098;28;20429;-58
2021/09/21 10:18:01;;;;;;;4.15;2.92;;;22.10;70.00;;;;;;5207338;28;20041;-58
2021/09/21 10:20:36;;;;;;;3.80;3.10;;;22.10;70.00;;;;;;5197916;28;20056;-59
2021/09/21 10:23:09;;;;;;;5.78;3.15;;;22.10;70.00;;;;;;5206446;28;20425;-58
2021/09/21 10:25:43;;;;;;;3.53;2.97;;;22.10;70.00;;;;;;5200382;28;20041;-57
2021/09/21 10:28:23;;;;;;;5.38;2.97;;;22.10;70.00;;;;;;5201561;28;20045;-59
2021/09/21 10:30:58;;;;;;;4.72;3.20;;;22.10;70.00;;;;;;5201781;28;20232;-59
2021/09/21 10:33:30;;;;;;;4.13;3.08;;;22.10;70.00;;;;;;5192541;28;20056;-56
2021/09/21 10:36:13;;;;;;;4.85;2.65;;;22.10;70.00;;;;;;5196523;28;20052;-58
2021/09/21 10:38:56;;;;;;;7.15;3.50;;;22.10;70.00;;;;;;5201514;28;20421;-57
2021/09/21 10:41:28;;;;;;;5.18;3.30;;;22.10;70.00;;;;;;5198120;28;20049;-60
2021/09/21 10:44:05;;;;;;;6.90;3.10;;;22.10;70.00;;;;;;5195617;28;20535;-58
2021/09/21 10:46:43;;;;;;;7.65;3.10;;;22.10;70.00;;;;;;5190825;28;20045;-59
2021/09/21 10:49:31;;;;;;;5.20;3.13;;;22.10;70.00;;;;;;5203188;28;20045;-56
2021/09/21 10:52:07;;;;;;;4.57;3.47;;;22.10;70.00;;;;;;5196470;28;20056;-58
2021/09/21 10:54:42;;;;;;;6.13;3.20;;;22.10;70.00;;;;;;5200083;28;23067;-58
2021/09/21 10:57:25;;;;;;;5.60;3.35;;;22.10;70.00;;;;;;5188678;28;20272;-60
2021/09/21 11:00:12;;;;;;;6.37;3.27;;;22.10;70.00;;;;;;5193689;28;20049;-57
2021/09/21 11:02:52;;;;;;;4.00;3.25;;;22.10;69.90;;;;;;5186352;28;20041;-57
2021/09/21 11:05:28;;;;;;;4.00;3.13;;;22.10;69.90;;;;;;5191440;28;20504;-57
2021/09/21 11:08:03;;;;;;;4.97;3.30;;;22.10;70.00;;;;;;5200124;28;20040;-57
2021/09/21 11:10:38;;;;;;;4.55;3.65;;;22.10;70.00;;;;;;5193483;28;20056;-57
2021/09/21 11:13:16;;;;;;;4.68;3.20;;;22.10;69.90;;;;;;5196613;28;20052;-56
2021/09/21 11:15:49;;;;;;;4.07;3.47;;;22.10;69.90;;;;;;5181899;28;20818;-59
2021/09/21 11:18:21;;;;;;;4.10;3.42;;;22.10;70.50;;;;;;5188958;28;20047;-59
2021/09/21 11:20:57;;;;;;;5.35;3.15;;;22.10;69.80;;;;;;5196830;28;20047;-59
2021/09/21 11:23:36;;;;;;;5.25;3.70;;;22.10;69.70;;;;;;5186409;28;20061;-57
2021/09/21 11:26:11;;;;;;;7.72;3.58;;;22.10;69.60;;;;;;5176964;28;20042;-59
2021/09/21 11:28:46;;;;;;;5.13;3.88;;;22.20;69.70;;;;;;5186610;28;20618;-57
2021/09/21 11:31:18;;;;;;;6.75;3.95;;;22.10;69.60;;;;;;5193396;28;20059;-59
2021/09/21 11:33:54;;;;;;;7.57;4.20;;;22.10;69.60;;;;;;5196783;28;20497;-60
2021/09/21 11:36:31;;;;;;;4.85;3.80;;;22.20;69.60;;;;;;5197731;28;20449;-59
2021/09/21 11:39:03;;;;;;;5.95;3.60;;;22.20;69.60;;;;;;5202739;28;20091;-58
2021/09/21 11:41:35;;;;;;;7.82;4.18;;;22.10;69.60;;;;;;5168196;28;20067;-56
2021/09/21 11:44:08;;;;;;;5.97;3.47;;;22.20;69.60;;;;;;5192142;28;20049;-58
2021/09/21 11:46:40;;;;;;;5.47;4.00;;;22.20;69.50;;;;;;5177902;28;20053;-58
2021/09/21 11:49:18;;;;;;;9.65;4.30;;;22.20;69.60;;;;;;5193029;28;20289;-58
2021/09/21 11:51:52;;;;;;;9.60;4.15;;;22.20;69.50;;;;;;5187101;28;20045;-58
2021/09/21 11:54:24;;;;;;;8.48;4.03;;;22.20;69.60;;;;;;5181576;28;20811;-58
2021/09/21 11:56:58;;;;;;;6.05;3.75;;;22.30;69.60;;;;;;5193737;28;20055;-58
2021/09/21 11:59:31;;;;;;;6.78;3.92;;;22.30;69.50;;;;;;5189472;28;20046;-58
2021/09/21 12:02:04;;;;;;;;;;;22.30;69.50;;;;;;5194422;28;20045;-55
2021/09/21 12:04:43;;;;;;;10.35;4.65;;;22.20;69.90;;;;;;5192196;28;19920;-60
2021/09/21 12:07:16;;;;;;;11.65;4.35;;;22.30;70.00;;;;;;5185720;28;20056;-61
2021/09/21 12:09:50;;;;;;;8.70;4.10;;;22.30;70.20;;;;;;5191335;28;20056;-57
2021/09/21 12:12:22;;;;;;;9.90;4.40;;;22.30;70.20;;;;;;5197926;28;20619;-58
2021/09/21 12:14:58;;;;;;;8.18;4.05;;;22.30;70.30;;;;;;5191554;28;20755;-57
2021/09/21 12:17:42;;;;;;;9.43;3.97;;;22.30;70.40;;;;;;5198802;28;20060;-60
2021/09/21 12:20:15;;;;;;;9.65;4.55;;;22.30;70.40;;;;;;5190877;28;20061;-58
2021/09/21 12:22:53;;;;;;;8.13;4.05;;;22.30;70.60;;;;;;5189646;28;20704;-58
2021/09/21 12:25:31;;;;;;;6.95;3.70;;;22.20;70.60;;;;;;5186828;28;20053;-57
2021/09/21 12:28:07;;;;;;;8.18;3.50;;;22.30;70.70;;;;;;5199782;28;20041;-57
2021/09/21 12:30:46;;;;;;;12.82;4.35;;;22.20;70.80;;;;;;5192195;28;20053;-55
2021/09/21 12:33:18;;;;;;;5.47;3.58;;;22.20;70.90;;;;;;5198090;28;20064;-53
2021/09/21 12:35:53;;;;;;;7.53;4.10;;;22.20;71.00;;;;;;5192959;28;22144;-57
2021/09/21 12:38:25;;;;;;;7.22;3.67;;;22.20;71.00;;;;;;5193957;28;20045;-53
2021/09/21 12:41:01;;;;;;;8.27;4.10;;;22.20;71.10;;;;;;5191183;28;20401;-56
2021/09/21 12:43:45;;;;;;;9.32;4.30;;;22.20;71.20;;;;;;5198764;28;20045;-59
2021/09/21 12:46:17;;;;;;;;;;;22.20;71.30;;;;;;5195177;28;20044;-59
2021/09/21 12:48:50;;;;;;;9.50;4.68;;;22.20;71.50;;;;;;5190112;28;19936;-57
2021/09/21 12:51:36;;;;;;;5.40;4.22;;;22.20;71.40;;;;;;5190488;28;20056;-58
2021/09/21 12:54:17;;;;;;;5.70;4.10;;;22.20;71.50;;;;;;5194703;28;20049;-57
2021/09/21 12:56:57;;;;;;;9.02;4.82;;;22.20;71.50;;;;;;5184092;28;20056;-54
2021/09/21 12:59:30;;;;;;;4.57;3.50;;;22.20;71.50;;;;;;5182055;28;20053;-55
2021/09/21 13:02:03;;;;;;;;;;;22.20;71.60;;;;;;5150890;28;20322;-57
2021/09/21 13:04:51;;;;;;;10.38;4.13;;;22.20;71.70;;;;;;5168449;28;20325;-55
2021/09/21 13:07:23;;;;;;;7.70;4.28;;;22.20;71.70;;;;;;5170285;28;20551;-57
2021/09/21 13:09:56;;;;;;;9.85;3.97;;;22.20;71.60;;;;;;5193058;28;20050;-57
2021/09/21 13:12:30;;;;;;;6.25;3.67;;;22.20;71.40;;;;;;5196130;28;20053;-56
2021/09/21 13:15:03;;;;;;;9.23;4.15;;;22.20;71.40;;;;;;5193430;28;20100;-60
2021/09/21 13:17:36;;;;;;;5.88;4.38;;;22.20;71.40;;;;;;5174888;28;20053;-60
2021/09/21 13:20:09;;;;;;;4.33;3.60;;;22.20;71.30;;;;;;5197532;28;20417;-61
2021/09/21 13:22:41;;;;;;;8.48;4.40;;;22.20;71.20;;;;;;5199074;28;20084;-58
2021/09/21 13:25:15;;;;;;;10.83;3.80;;;22.20;71.20;;;;;;5197330;28;20092;-59
2021/09/21 13:27:52;;;;;;;6.70;4.20;;;22.20;71.00;;;;;;5206141;28;20421;-56
2021/09/21 13:30:25;;;;;;;6.38;4.50;;;22.20;71.00;;;;;;5178726;28;20383;-59
2021/09/21 13:32:58;;;;;;;;;;;22.20;70.90;;;;;;5184544;28;20512;-59